createdAt,value
2018-02-12T00:02:16.407Z,24.25
2018-02-12T00:04:44.304Z,23.00
2018-02-12T00:07:12.242Z,22.85
2018-02-12T00:09:40.113Z,21.90
2018-02-12T00:12:08.096Z,22.45
2018-02-12T00:14:36.060Z,23.58
2018-02-12T00:17:03.947Z,22.35
2018-02-12T00:19:31.863Z,22.42
2018-02-12T00:21:59.826Z,23.27
2018-02-12T00:24:27.726Z,24.90
2018-02-12T00:26:56.465Z,24.27
2018-02-12T00:29:25.111Z,23.45
2018-02-12T00:31:53.089Z,25.50
2018-02-12T00:34:20.959Z,27.15
2018-02-12T00:36:48.871Z,24.10
2018-02-12T00:39:16.782Z,24.02
2018-02-12T00:41:44.688Z,26.65
2018-02-12T00:44:13.349Z,26.70
2018-02-12T00:46:41.227Z,23.65
2018-02-12T00:49:09.894Z,27.70
2018-02-12T00:51:37.858Z,24.80
2018-02-12T00:54:05.826Z,24.48
2018-02-12T00:56:33.758Z,26.50
2018-02-12T00:59:01.644Z,24.30
2018-02-12T01:01:29.626Z,22.70
2018-02-12T01:03:57.595Z,25.25
2018-02-12T01:06:25.514Z,25.48
2018-02-12T01:08:53.406Z,22.70
2018-02-12T01:11:21.298Z,25.45
2018-02-12T01:13:49.275Z,24.77
2018-02-12T01:16:17.201Z,24.33
2018-02-12T01:18:45.132Z,25.23
2018-02-12T01:21:13.881Z,27.00
2018-02-12T01:23:41.831Z,26.92
2018-02-12T01:26:09.716Z,25.65
2018-02-12T01:28:37.606Z,26.02
2018-02-12T01:31:05.567Z,27.95
2018-02-12T01:33:33.451Z,26.15
2018-02-12T01:36:02.186Z,25.65
2018-02-12T01:38:30.074Z,25.33
2018-02-12T01:40:58.048Z,24.50
2018-02-12T01:43:25.977Z,26.20
2018-02-12T01:45:53.958Z,30.05
2018-02-12T01:48:21.919Z,28.55
2018-02-12T01:50:49.891Z,27.13
2018-02-12T01:53:17.842Z,28.95
2018-02-12T01:55:45.791Z,28.08
2018-02-12T01:58:14.406Z,28.65
2018-02-12T02:00:42.288Z,27.30
2018-02-12T02:03:10.246Z,28.10
2018-02-12T02:05:38.160Z,27.65
2018-02-12T02:08:06.112Z,26.60
2018-02-12T02:10:34.013Z,27.20
2018-02-12T02:13:02.760Z,26.23
2018-02-12T02:15:30.688Z,27.85
2018-02-12T02:17:58.578Z,28.27
2018-02-12T02:20:26.470Z,28.75
2018-02-12T02:22:54.403Z,30.00
2018-02-12T02:25:22.292Z,27.67
2018-02-12T02:27:50.253Z,28.00
2018-02-12T02:30:18.238Z,29.52
2018-02-12T02:32:46.117Z,27.35
2018-02-12T02:35:14.007Z,24.25
2018-02-12T02:37:42.656Z,22.37
2018-02-12T02:40:10.654Z,23.35
2018-02-12T02:42:39.303Z,22.50
2018-02-12T02:45:07.199Z,21.98
2018-02-12T02:47:35.187Z,22.60
2018-02-12T02:50:03.903Z,21.65
2018-02-12T02:52:31.930Z,24.30
2018-02-12T02:55:00.669Z,24.37
2018-02-12T02:57:28.530Z,26.27
2018-02-12T02:59:56.433Z,25.05
2018-02-12T03:02:24.383Z,24.92
2018-02-12T03:04:52.281Z,23.42
2018-02-12T03:07:21.007Z,25.98
2018-02-12T03:09:48.909Z,25.30
2018-02-12T03:12:16.803Z,25.65
2018-02-12T03:14:45.434Z,24.65
2018-02-12T03:17:13.394Z,25.30
2018-02-12T03:19:41.274Z,26.62
2018-02-12T03:22:09.200Z,26.60
2018-02-12T03:24:37.942Z,24.67
2018-02-12T03:27:05.846Z,25.00
2018-02-12T03:29:34.562Z,24.05
2018-02-12T03:32:02.543Z,23.40
2018-02-12T03:34:30.422Z,24.25
2018-02-12T03:36:58.335Z,24.75
2018-02-12T03:39:26.954Z,24.58
2018-02-12T03:41:54.841Z,26.02
2018-02-12T03:44:22.719Z,26.52
2018-02-12T03:46:51.449Z,26.65
2018-02-12T03:49:20.195Z,26.05
2018-02-12T03:51:48.201Z,25.70
2018-02-12T03:54:16.922Z,23.90
2018-02-12T03:56:44.878Z,23.98
2018-02-12T03:59:12.742Z,26.00
2018-02-12T04:01:40.624Z,25.75
2018-02-12T04:04:08.487Z,24.52
2018-02-12T04:06:36.428Z,26.83
2018-02-12T04:09:05.152Z,26.70
2018-02-12T04:11:33.153Z,28.45
2018-02-12T04:14:01.102Z,27.33
2018-02-12T04:16:29.826Z,27.00
2018-02-12T04:18:58.546Z,23.90
2018-02-12T04:21:26.434Z,26.67
2018-02-12T04:23:54.359Z,25.02
2018-02-12T04:26:23.055Z,28.80
2018-02-12T04:28:50.991Z,26.23
2018-02-12T04:31:18.931Z,25.65
2018-02-12T04:33:46.890Z,24.63
2018-02-12T04:36:14.778Z,28.12
2018-02-12T04:38:42.754Z,26.17
2018-02-12T04:41:10.638Z,27.33
2018-02-12T04:43:39.308Z,24.35
2018-02-12T04:46:07.303Z,25.73
2018-02-12T04:48:35.987Z,28.20
2018-02-12T04:51:04.663Z,30.15
2018-02-12T04:53:33.292Z,30.02
2018-02-12T04:56:01.184Z,28.50
2018-02-12T04:58:29.059Z,29.67
2018-02-12T05:00:57.035Z,27.50
2018-02-12T05:03:24.945Z,30.83
2018-02-12T05:05:52.922Z,28.40
2018-02-12T05:08:20.805Z,31.12
2018-02-12T05:10:49.524Z,28.40
2018-02-12T05:13:17.422Z,30.92
2018-02-12T05:15:46.162Z,30.45
2018-02-12T05:18:14.130Z,32.38
2018-02-12T05:20:42.790Z,30.25
2018-02-12T05:23:10.727Z,31.80
2018-02-12T05:25:39.388Z,30.00
2018-02-12T05:28:07.344Z,33.50
2018-02-12T05:30:35.320Z,31.23
2018-02-12T05:33:03.251Z,31.35
2018-02-12T05:35:31.239Z,35.60
2018-02-12T05:37:59.110Z,32.80
2018-02-12T05:40:27.017Z,35.63
2018-02-12T05:42:55.742Z,33.08
2018-02-12T05:45:23.634Z,35.83
2018-02-12T05:47:51.544Z,34.58
2018-02-12T05:50:20.212Z,34.50
2018-02-12T05:52:48.868Z,39.08
2018-02-12T05:55:16.746Z,36.90
2018-02-12T05:57:44.712Z,34.50
2018-02-12T06:00:12.663Z,38.17
2018-02-12T06:02:40.657Z,40.30
2018-02-12T06:05:08.623Z,40.25
2018-02-12T06:07:36.586Z,36.15
2018-02-12T06:10:04.491Z,37.17
2018-02-12T06:12:32.406Z,35.15
2018-02-12T06:15:00.283Z,36.78
2018-02-12T06:17:28.235Z,39.35
2018-02-12T06:19:56.103Z,40.35
2018-02-12T06:22:23.972Z,40.55
2018-02-12T06:24:51.930Z,38.47
2018-02-12T06:27:19.825Z,36.13
2018-02-12T06:29:47.713Z,38.17
2018-02-12T06:32:16.335Z,37.28
2018-02-12T06:34:44.260Z,37.90
2018-02-12T06:37:12.929Z,40.55
2018-02-12T06:39:40.805Z,40.88
2018-02-12T06:42:08.725Z,41.75
2018-02-12T06:44:36.594Z,38.40
2018-02-12T06:47:04.593Z,36.85
2018-02-12T06:49:32.546Z,41.30
2018-02-12T06:52:01.215Z,39.65
2018-02-12T06:54:29.186Z,38.65
2018-02-12T06:56:57.076Z,35.95
2018-02-12T06:59:24.994Z,36.70
2018-02-12T07:01:52.876Z,37.58
2018-02-12T07:04:20.846Z,36.97
2018-02-12T07:06:48.769Z,39.22
2018-02-12T07:09:16.670Z,40.05
2018-02-12T07:11:44.585Z,40.00
2018-02-12T07:14:12.551Z,37.58
2018-02-12T07:16:40.511Z,37.38
2018-02-12T07:19:08.407Z,37.22
2018-02-12T07:21:36.305Z,38.47
2018-02-12T07:24:04.236Z,36.42
2018-02-12T07:26:32.141Z,36.40
2018-02-12T07:29:00.040Z,37.22
2018-02-12T07:31:27.995Z,37.08
2018-02-12T07:33:55.893Z,40.85
2018-02-12T07:36:23.784Z,37.92
2018-02-12T07:38:52.425Z,35.20
2018-02-12T07:41:20.333Z,38.75
2018-02-12T07:43:49.093Z,35.47
2018-02-12T07:46:17.739Z,38.05
2018-02-12T07:48:45.623Z,41.05
2018-02-12T07:51:13.537Z,35.42
2018-02-12T07:53:41.496Z,39.95
2018-02-12T07:56:09.392Z,39.97
2018-02-12T07:58:38.124Z,40.40
2018-02-12T08:01:06.022Z,41.35
2018-02-12T08:03:33.883Z,40.45
2018-02-12T08:06:01.810Z,39.35
2018-02-12T08:08:29.683Z,39.83
2018-02-12T08:10:57.582Z,42.58
2018-02-12T08:13:25.556Z,41.33
2018-02-12T08:15:53.416Z,42.00
2018-02-12T08:18:21.380Z,40.95
2018-02-12T08:20:49.243Z,41.17
2018-02-12T08:23:17.195Z,40.33
2018-02-12T08:25:45.138Z,43.85
2018-02-12T08:28:13.098Z,44.83
2018-02-12T08:30:40.970Z,45.53
2018-02-12T08:33:08.903Z,43.05
2018-02-12T08:35:37.679Z,44.08
2018-02-12T08:38:05.562Z,45.42
2018-02-12T08:40:34.286Z,44.28
2018-02-12T08:43:02.178Z,46.80
2018-02-12T08:45:30.052Z,45.50
2018-02-12T08:47:57.952Z,45.58
2018-02-12T08:50:26.637Z,43.00
2018-02-12T08:52:55.352Z,43.70
2018-02-12T08:55:23.258Z,49.08
2018-02-12T08:57:51.194Z,48.63
2018-02-12T09:00:19.359Z,47.53
2018-02-12T09:02:47.285Z,44.70
2018-02-12T09:05:15.285Z,45.63
2018-02-12T09:07:43.273Z,47.67
2018-02-12T09:10:11.250Z,51.03
2018-02-12T09:12:39.137Z,47.40
2018-02-12T09:15:07.083Z,48.22
2018-02-12T09:17:34.961Z,48.10
2018-02-12T09:20:02.910Z,45.97
2018-02-12T09:22:30.833Z,45.42
2018-02-12T09:24:58.726Z,47.53
2018-02-12T09:27:26.627Z,54.67
2018-02-12T09:29:54.509Z,47.20
2018-02-12T09:32:22.482Z,46.25
2018-02-12T09:34:50.382Z,47.08
2018-02-12T09:37:19.023Z,48.50
2018-02-12T09:39:46.878Z,48.35
2018-02-12T09:42:14.755Z,46.53
2018-02-12T09:44:42.659Z,50.75
2018-02-12T09:47:11.422Z,47.92
2018-02-12T09:49:39.400Z,55.45
2018-02-12T09:52:07.267Z,50.42
2018-02-12T09:54:35.187Z,49.47
2018-02-12T09:57:03.152Z,47.05
2018-02-12T09:59:31.089Z,54.60
2018-02-12T10:01:59.726Z,47.95
2018-02-12T10:04:27.708Z,46.65
2018-02-12T10:06:55.623Z,50.30
2018-02-12T10:09:24.259Z,50.03
2018-02-12T10:11:52.129Z,50.58
2018-02-12T10:14:20.042Z,48.38
2018-02-12T10:16:48.670Z,50.12
2018-02-12T10:19:16.554Z,43.92
2018-02-12T10:21:44.436Z,43.35
2018-02-12T10:24:12.322Z,43.97
2018-02-12T10:26:41.000Z,42.38
2018-02-12T10:29:09.626Z,44.08
2018-02-12T10:31:37.492Z,46.70
2018-02-12T10:34:05.368Z,45.03
2018-02-12T10:36:33.255Z,46.33
2018-02-12T10:39:01.250Z,40.95
2018-02-12T10:41:29.924Z,35.08
2018-02-12T10:43:57.783Z,37.67
2018-02-12T10:46:25.735Z,37.10
2018-02-12T10:48:54.469Z,33.83
2018-02-12T10:51:23.162Z,34.38
2018-02-12T10:53:51.066Z,32.08
2018-02-12T10:56:18.995Z,33.30
2018-02-12T10:58:46.871Z,31.33
2018-02-12T11:01:14.836Z,36.70
2018-02-12T11:03:42.786Z,33.95
2018-02-12T11:06:11.516Z,34.88
2018-02-12T11:08:39.378Z,38.20
2018-02-12T11:11:07.322Z,40.97
2018-02-12T11:13:35.231Z,37.47
2018-02-12T11:16:03.104Z,33.70
2018-02-12T11:18:31.013Z,29.33
2018-02-12T11:20:59.769Z,32.08
2018-02-12T11:23:27.654Z,31.30
2018-02-12T11:25:56.355Z,31.60
2018-02-12T11:28:25.000Z,32.47
2018-02-12T11:30:52.916Z,30.83
2018-02-12T11:33:20.787Z,31.73
2018-02-12T11:35:48.680Z,34.15
2018-02-12T11:38:16.640Z,30.77
2018-02-12T11:40:44.607Z,31.37
2018-02-12T11:43:12.579Z,28.67
2018-02-12T11:45:40.467Z,23.70
2018-02-12T11:48:08.448Z,26.12
2018-02-12T11:50:36.420Z,30.48
2018-02-12T11:53:04.298Z,27.15
2018-02-12T11:55:32.204Z,26.50
2018-02-12T11:58:00.158Z,25.37
2018-02-12T12:00:28.139Z,24.70
2018-02-12T12:02:56.111Z,22.90
2018-02-12T12:05:24.072Z,22.95
2018-02-12T12:07:51.979Z,24.15
2018-02-12T12:10:20.050Z,24.40
2018-02-12T12:12:48.014Z,21.98
2018-02-12T12:15:15.990Z,23.17
2018-02-12T12:17:43.888Z,19.50
2018-02-12T12:20:12.533Z,21.17
2018-02-12T12:22:40.406Z,20.42
2018-02-12T12:25:08.297Z,22.85
2018-02-12T12:27:36.174Z,22.67
2018-02-12T12:30:04.870Z,21.12
2018-02-12T12:32:33.602Z,21.80
2018-02-12T12:35:01.552Z,21.33
2018-02-12T12:37:29.527Z,22.05
2018-02-12T12:39:57.495Z,21.95
2018-02-12T12:42:25.460Z,22.10
2018-02-12T12:44:53.346Z,23.17
2018-02-12T12:47:22.173Z,22.08
2018-02-12T12:49:49.257Z,19.73
2018-02-12T12:52:17.162Z,20.48
2018-02-12T12:54:45.054Z,20.20
2018-02-12T12:57:13.679Z,19.85
2018-02-12T12:59:41.555Z,18.15
2018-02-12T13:02:09.492Z,18.58
2018-02-12T13:04:37.416Z,21.23
2018-02-12T13:07:05.407Z,21.60
2018-02-12T13:09:34.135Z,19.45
2018-02-12T13:12:02.122Z,20.75
2018-02-12T13:14:30.018Z,21.58
2018-02-12T13:16:57.899Z,21.92
2018-02-12T13:19:26.627Z,21.20
2018-02-12T13:21:54.603Z,21.42
2018-02-12T13:24:22.495Z,24.98
2018-02-12T13:26:50.479Z,23.27
2018-02-12T13:29:18.397Z,21.42
2018-02-12T13:31:46.266Z,20.58
2018-02-12T13:34:14.139Z,22.10
2018-02-12T13:36:42.024Z,22.87
2018-02-12T13:39:09.971Z,21.30
2018-02-12T13:41:37.927Z,21.58
2018-02-12T13:44:05.922Z,23.17
2018-02-12T13:46:33.872Z,97.32
2018-02-12T13:49:01.782Z,27.45
2018-02-12T13:51:29.702Z,69.25
2018-02-12T13:53:57.617Z,34.78
2018-02-12T13:56:25.587Z,68.53
2018-02-12T13:58:53.496Z,82.68
2018-02-12T14:01:21.455Z,68.37
2018-02-12T14:03:49.436Z,103.35
2018-02-12T14:06:17.334Z,37.15
2018-02-12T14:08:45.291Z,34.97
2018-02-12T14:11:13.222Z,43.17
2018-02-12T14:13:41.868Z,29.15
2018-02-12T14:16:09.839Z,20.60
2018-02-12T14:18:37.765Z,25.83
2018-02-12T14:21:05.972Z,83.22
2018-02-12T14:23:33.932Z,30.83
2018-02-12T14:26:01.822Z,25.85
2018-02-12T14:28:29.781Z,25.48
2018-02-12T14:30:57.716Z,23.70
2018-02-12T14:33:25.617Z,21.85
2018-02-12T14:35:53.553Z,37.92
2018-02-12T14:38:21.430Z,25.25
2018-02-12T14:40:49.343Z,27.48
2018-02-12T14:43:18.030Z,60.63
2018-02-12T14:45:46.760Z,110.10
2018-02-12T14:48:14.740Z,53.65
2018-02-12T14:50:42.632Z,37.88
2018-02-12T14:53:10.579Z,52.47
2018-02-12T14:55:38.535Z,137.27
2018-02-12T14:58:06.418Z,41.78
2018-02-12T15:00:34.326Z,72.75
2018-02-12T15:03:02.991Z,73.37
2018-02-12T15:05:30.970Z,40.28
2018-02-12T15:07:58.921Z,41.75
2018-02-12T15:10:26.829Z,87.07
2018-02-12T15:12:54.727Z,63.22
2018-02-12T15:15:22.657Z,55.75
2018-02-12T15:17:51.336Z,51.63
2018-02-12T15:20:20.008Z,94.45
2018-02-12T15:22:47.888Z,34.22
2018-02-12T15:25:16.556Z,29.45
2018-02-12T15:27:44.547Z,62.00
2018-02-12T15:30:13.274Z,44.35
2018-02-12T15:32:41.255Z,78.55
2018-02-12T15:35:09.241Z,91.65
2018-02-12T15:37:37.195Z,52.17
2018-02-12T15:40:05.102Z,68.50
2018-02-12T15:42:33.844Z,38.63
2018-02-12T15:45:01.753Z,42.55
2018-02-12T15:47:30.543Z,37.55
2018-02-12T15:49:59.593Z,33.80
2018-02-12T15:52:27.486Z,46.50
2018-02-12T15:54:55.359Z,60.30
2018-02-12T15:57:23.386Z,29.63
2018-02-12T15:59:51.399Z,34.05
2018-02-12T16:02:19.299Z,29.42
2018-02-12T16:04:47.271Z,30.02
2018-02-12T16:07:15.265Z,31.85
2018-02-12T16:09:43.239Z,43.53
2018-02-12T16:12:11.173Z,31.48
2018-02-12T16:14:39.067Z,32.08
2018-02-12T16:17:07.363Z,39.35
2018-02-12T16:19:35.298Z,36.83
2018-02-12T16:22:03.151Z,41.28
2018-02-12T16:24:31.032Z,40.65
2018-02-12T16:26:59.004Z,39.65
2018-02-12T16:29:26.890Z,40.08
2018-02-12T16:31:54.812Z,37.90
2018-02-12T16:34:23.597Z,39.10
2018-02-12T16:36:52.338Z,39.05
2018-02-12T16:39:20.342Z,35.05
2018-02-12T16:41:49.027Z,36.78
2018-02-12T16:44:17.683Z,36.85
2018-02-12T16:46:45.717Z,31.25
2018-02-12T16:49:13.631Z,37.58
2018-02-12T16:51:41.528Z,33.67
2018-02-12T16:54:10.260Z,27.40
2018-02-12T16:56:38.162Z,31.35
2018-02-12T16:59:06.093Z,30.73
2018-02-12T17:01:34.084Z,28.33
2018-02-12T17:04:02.076Z,30.70
2018-02-12T17:06:30.733Z,47.08
2018-02-12T17:08:58.600Z,32.17
2018-02-12T17:11:26.501Z,36.25
2018-02-12T17:13:58.353Z,24.00
2018-02-12T17:16:30.542Z,26.15
2018-02-12T17:19:02.471Z,27.48
2018-02-12T17:21:33.723Z,33.08
2018-02-12T17:24:04.760Z,28.87
2018-02-12T17:26:35.286Z,29.65
2018-02-12T17:29:05.789Z,30.75
2018-02-12T17:31:37.031Z,29.17
2018-02-12T17:34:09.114Z,28.67
2018-02-12T17:36:40.492Z,30.00
2018-02-12T17:39:11.070Z,32.83
2018-02-12T17:41:42.620Z,31.40
2018-02-12T17:44:13.185Z,32.50
2018-02-12T17:46:44.465Z,31.90
2018-02-12T17:49:16.034Z,37.33
2018-02-12T17:51:49.547Z,38.47
2018-02-12T17:54:19.049Z,35.75
2018-02-12T17:56:49.359Z,39.00
2018-02-12T17:59:20.885Z,38.63
2018-02-12T18:01:52.699Z,38.05
2018-02-12T18:04:23.348Z,37.58
2018-02-12T18:06:55.662Z,41.33
2018-02-12T18:09:26.691Z,34.75
2018-02-12T18:11:57.932Z,35.67
2018-02-12T18:14:27.753Z,40.00
2018-02-12T18:16:58.047Z,38.00
2018-02-12T18:19:28.622Z,37.25
2018-02-12T18:21:59.209Z,34.75
2018-02-12T18:24:29.194Z,33.95
2018-02-12T18:26:59.744Z,33.00
2018-02-12T18:29:29.973Z,33.78
2018-02-12T18:31:59.906Z,34.55
2018-02-12T18:34:29.926Z,36.35
2018-02-12T18:37:00.949Z,38.65
2018-02-12T18:39:32.322Z,38.58
2018-02-12T18:42:02.992Z,40.00
2018-02-12T18:44:33.815Z,37.13
2018-02-12T18:47:04.514Z,40.53
2018-02-12T18:49:33.910Z,37.17
2018-02-12T18:52:04.856Z,38.38
2018-02-12T18:54:35.321Z,38.67
2018-02-12T18:57:05.867Z,39.33
2018-02-12T18:59:36.444Z,38.90
2018-02-12T19:02:07.234Z,37.30
2018-02-12T19:04:36.771Z,37.90
2018-02-12T19:07:06.007Z,33.75
2018-02-12T19:09:35.555Z,32.75
2018-02-12T19:12:08.145Z,36.45
2018-02-12T19:14:39.047Z,35.58
2018-02-12T19:17:10.498Z,35.50
2018-02-12T19:19:40.222Z,33.53
2018-02-12T19:22:10.275Z,37.42
2018-02-12T19:24:39.433Z,35.67
2018-02-12T19:27:08.924Z,37.20
2018-02-12T19:29:37.940Z,35.28
2018-02-12T19:32:08.153Z,35.53
2018-02-12T19:34:38.239Z,35.40
2018-02-12T19:37:09.867Z,35.60
2018-02-12T19:39:41.462Z,35.20
2018-02-12T19:42:14.666Z,35.17
2018-02-12T19:44:46.677Z,34.95
2018-02-12T19:47:18.831Z,36.15
2018-02-12T19:49:50.990Z,36.92
2018-02-12T19:52:23.489Z,32.50
2018-02-12T19:54:55.999Z,34.65
2018-02-12T19:57:27.564Z,35.67
2018-02-12T19:59:58.064Z,37.72
2018-02-12T20:02:30.176Z,37.47
2018-02-12T20:04:59.459Z,37.10
2018-02-12T20:07:28.996Z,39.50
2018-02-12T20:09:58.425Z,41.20
2018-02-12T20:12:27.303Z,38.33
2018-02-12T20:15:00.194Z,39.42
2018-02-12T20:17:33.343Z,38.30
2018-02-12T20:20:06.813Z,36.42
2018-02-12T20:22:38.607Z,39.50
2018-02-12T20:25:10.382Z,30.62
2018-02-12T20:27:42.452Z,33.55
2018-02-12T20:30:11.304Z,29.42
2018-02-12T20:32:39.709Z,31.73
2018-02-12T20:35:08.180Z,30.58
2018-02-12T20:37:36.530Z,25.40
2018-02-12T20:40:05.373Z,22.62
2018-02-12T20:42:34.460Z,21.15
2018-02-12T20:45:03.967Z,22.02
2018-02-12T20:47:33.414Z,22.67
2018-02-12T20:50:01.905Z,20.17
2018-02-12T20:52:30.212Z,18.73
2018-02-12T20:54:59.274Z,19.20
2018-02-12T20:57:28.383Z,17.40
2018-02-12T20:59:57.095Z,17.95
2018-02-12T21:02:26.401Z,16.87
2018-02-12T21:04:56.492Z,16.27
2018-02-12T21:07:26.196Z,20.12
2018-02-12T21:09:54.903Z,18.87
2018-02-12T21:12:23.634Z,20.02
2018-02-12T21:14:52.306Z,22.05
2018-02-12T21:17:21.787Z,21.77
2018-02-12T21:19:51.692Z,23.40
2018-02-12T21:22:21.368Z,29.25
2018-02-12T21:24:50.706Z,29.87
2018-02-12T21:27:19.410Z,30.60
2018-02-12T21:29:49.783Z,34.25
2018-02-12T21:32:19.728Z,31.52
2018-02-12T21:34:49.283Z,33.65
2018-02-12T21:37:17.766Z,30.73
2018-02-12T21:39:46.559Z,33.60
2018-02-12T21:42:17.174Z,29.85
2018-02-12T21:44:46.078Z,31.10
2018-02-12T21:47:14.579Z,26.77
2018-02-12T21:49:43.620Z,25.17
2018-02-12T21:52:11.946Z,27.98
2018-02-12T21:54:40.132Z,28.15
2018-02-12T21:57:08.467Z,18.20
2018-02-12T21:59:36.801Z,12.32
2018-02-12T22:02:04.974Z,11.10
2018-02-12T22:04:33.174Z,7.85
2018-02-12T22:07:02.269Z,6.12
2018-02-12T22:09:31.743Z,5.45
2018-02-12T22:12:00.170Z,4.62
2018-02-12T22:14:28.384Z,4.90
2018-02-12T22:16:56.586Z,5.10
2018-02-12T22:19:25.618Z,4.18
2018-02-12T22:21:53.900Z,4.30
2018-02-12T22:24:22.116Z,4.20
2018-02-12T22:26:50.319Z,4.60
2018-02-12T22:29:19.363Z,3.50
2018-02-12T22:31:47.458Z,3.10
2018-02-12T22:34:15.671Z,3.47
2018-02-12T22:36:43.890Z,3.40
2018-02-12T22:39:12.136Z,3.50
2018-02-12T22:41:40.309Z,3.50
2018-02-12T22:44:08.618Z,3.97
2018-02-12T22:46:36.764Z,3.37
2018-02-12T22:49:04.982Z,3.87
2018-02-12T22:51:33.913Z,3.35
2018-02-12T22:54:02.087Z,3.50
2018-02-12T22:56:30.336Z,3.12
2018-02-12T22:58:59.337Z,2.55
2018-02-12T23:01:28.381Z,2.42
2018-02-12T23:03:56.583Z,3.53
2018-02-12T23:06:24.923Z,2.58
2018-02-12T23:08:53.159Z,3.12
2018-02-12T23:11:21.439Z,2.70
2018-02-12T23:13:49.655Z,2.47
2018-02-12T23:16:17.884Z,2.60
2018-02-12T23:18:48.908Z,2.20
2018-02-12T23:21:17.368Z,4.18
2018-02-12T23:23:45.594Z,2.85
2018-02-12T23:26:13.851Z,3.00
2018-02-12T23:28:42.932Z,3.05
2018-02-12T23:31:11.594Z,3.03
2018-02-12T23:33:40.394Z,3.08
2018-02-12T23:36:08.358Z,2.40
2018-02-12T23:38:36.365Z,3.22
2018-02-12T23:41:04.962Z,3.30
2018-02-12T23:43:33.133Z,2.35
2018-02-12T23:46:01.026Z,2.55
2018-02-12T23:48:29.311Z,3.00
2018-02-12T23:50:59.130Z,2.40
2018-02-12T23:53:27.829Z,2.97
2018-02-12T23:55:57.791Z,3.00
2018-02-12T23:58:25.707Z,2.87
